Disclaimer

Please do not use the information listed here in-flight or in-navigation, as they are not provided to us by the airports but are provided by volunteers, so they might be outdated.

Search


Regions


Airport information page

Radio informations:
Tower (TWR) - 121.225 MHz
RADAR - 119.95 MHz
Automatic Terminal Information Service (ATIS) - 118.95 MHz
Approach (APP) - 119.95 MHz
INFO - 121.225 MHz

Airport informations:
Latitude: 50° 12' 10.72" N
Longitude: 012° 54' 53.94" E
Elevation: 1989 feet - 606 meters
Operating hours: Remarks
Operating agency: Civil government, landing fees and diplomatic clearance may be required
Timezone: UTC+1(+2DT)
Fuel: Jet fuel avaiable but type is unknown.

100/130 MIL Spec, low lead, aviation gasoline (BLUE)

Runway information:
11/29 - 7054 x 98 feet< - >2150 x 30 meters

Recent METARs:
LKKV 201430Z 08011KT 040V110 8000 OVC007 M01/M02 Q1009 R29/591092
LKKV 201500Z 09011KT 7000 OVC006 M01/M02 Q1009 R29/591092
LKKV 201530Z 09010KT 7000 OVC006 M01/M02 Q1009 R29///////

Airport on the map: